Time;durP1;ratioP1;P1;durP2;ratioP2;P2;SDS_P1;SDS_P2;PMS_P1;PMS_P2;Temp;Humidity;BMP_temperature;BMP_pressure;BME280_temperature;BME280_humidity;BME280_pressure;Samples;Min_cycle;Max_cycle;Signal;HPM_P1;HPM_P2
2023/03/07 00:02:25;;;;;;;38.08;34.58;;;;;;;1.51;78.79;96963.84;5023759;28;20158;-77
2023/03/07 00:04:50;;;;;;;40.25;36.63;;;;;;;1.47;78.74;96960.03;5005021;28;20044;-76
2023/03/07 00:07:15;;;;;;;37.10;33.53;;;;;;;1.32;78.09;96958.50;5016240;28;20460;-77
2023/03/07 00:09:41;;;;;;;38.05;34.55;;;;;;;1.44;77.74;96960.44;5016314;28;20033;-75
2023/03/07 00:12:08;;;;;;;35.35;32.05;;;;;;;1.46;77.47;96958.38;5019232;28;20017;-76
2023/03/07 00:14:34;;;;;;;36.22;32.63;;;;;;;1.32;78.26;96957.69;5020571;28;20034;-76
2023/03/07 00:16:59;;;;;;;33.97;30.67;;;;;;;1.37;78.37;96955.19;5009707;28;20397;-77
2023/03/07 00:19:25;;;;;;;34.30;30.92;;;;;;;1.45;77.59;96956.78;5024560;28;20033;-77
2023/03/07 00:21:50;;;;;;;33.85;30.42;;;;;;;1.45;77.36;96954.13;5019297;28;20413;-77
2023/03/07 00:24:15;;;;;;;34.53;31.15;;;;;;;1.43;77.91;96949.03;5020819;28;20030;-76
2023/03/07 00:26:41;;;;;;;34.63;31.23;;;;;;;1.42;77.38;96953.50;5014141;28;20452;-77
2023/03/07 00:29:08;;;;;;;34.10;30.73;;;;;;;1.55;77.30;96957.06;5032448;28;20040;-77
2023/03/07 00:31:34;;;;;;;33.65;30.38;;;;;;;1.56;77.41;96953.41;5019097;28;20392;-78
2023/03/07 00:33:59;;;;;;;33.92;30.67;;;;;;;1.60;77.78;96949.28;5037196;28;20030;-77
2023/03/07 00:36:25;;;;;;;36.13;32.72;;;;;;;1.49;77.90;96936.75;5009654;28;20057;-77
2023/03/07 00:38:50;;;;;;;35.45;32.22;;;;;;;1.60;77.65;96943.97;5023809;28;20538;-77
2023/03/07 00:41:18;;;;;;;33.80;30.60;;;;;;;1.55;78.14;96938.50;5002437;28;20048;-77
2023/03/07 00:43:46;;;;;;;30.73;27.73;;;;;;;1.54;77.04;96939.56;5020793;28;20038;-77
2023/03/07 00:46:16;;;;;;;30.77;27.70;;;;;;;1.52;77.59;96933.66;5009570;28;20022;-77
2023/03/07 00:48:42;;;;;;;32.97;29.58;;;;;;;1.52;77.62;96936.31;5007836;28;20022;-77
2023/03/07 00:51:10;;;;;;;32.00;28.77;;;;;;;1.60;76.47;96933.38;5015451;28;20027;-75
2023/03/07 00:53:36;;;;;;;34.35;30.83;;;;;;;1.63;77.24;96927.63;5002568;28;20038;-75
2023/03/07 00:56:11;;;;;;;31.00;27.98;;;;;;;1.65;76.60;96930.88;5008898;28;20018;-76
2023/03/07 00:58:37;;;;;;;32.80;29.33;;;;;;;1.63;76.76;96919.66;5009001;28;20030;-77
2023/03/07 01:01:04;;;;;;;33.45;30.17;;;;;;;1.62;77.13;96923.34;5019718;28;20109;-76
2023/03/07 01:03:31;;;;;;;31.58;28.52;;;;;;;1.71;76.74;96922.03;5018513;28;20041;-77
2023/03/07 01:05:57;;;;;;;34.67;31.27;;;;;;;1.58;76.89;96908.91;5007127;28;20084;-77
2023/03/07 01:08:22;;;;;;;32.38;28.98;;;;;;;1.59;77.10;96900.72;5025094;28;20041;-77
2023/03/07 01:10:48;;;;;;;33.35;29.95;;;;;;;1.58;76.79;96903.59;5003511;28;20026;-77
2023/03/07 01:13:15;;;;;;;36.80;33.08;;;;;;;1.54;77.80;96897.13;5018115;28;20099;-76
2023/03/07 01:15:41;;;;;;;36.47;32.60;;;;;;;1.55;77.12;96910.16;5006843;28;20061;-77
2023/03/07 01:18:08;;;;;;;37.67;33.72;;;;;;;1.64;77.41;96908.00;5007769;28;20072;-77
2023/03/07 01:20:36;;;;;;;36.85;33.42;;;;;;;1.68;77.03;96903.91;5003791;28;20565;-76
2023/03/07 01:23:01;;;;;;;35.75;32.10;;;;;;;1.52;77.49;96893.88;5018045;28;20057;-78
2023/03/07 01:25:27;;;;;;;37.15;33.45;;;;;;;1.55;77.52;96888.09;5006369;28;20029;-74
2023/03/07 01:27:54;;;;;;;36.60;32.95;;;;;;;1.58;77.35;96885.03;5024576;28;20506;-75
2023/03/07 01:30:22;;;;;;;37.53;33.92;;;;;;;1.57;77.16;96878.06;5021001;28;20408;-75
2023/03/07 01:32:53;;;;;;;37.78;34.05;;;;;;;1.62;77.91;96872.94;5001575;28;20030;-74
2023/03/07 01:35:19;;;;;;;37.03;33.42;;;;;;;1.60;76.50;96875.00;5014612;28;20810;-74
2023/03/07 01:37:48;;;;;;;39.95;35.95;;;;;;;1.67;77.70;96870.44;5014644;28;20026;-74
2023/03/07 01:40:13;;;;;;;38.63;34.85;;;;;;;1.49;77.05;96867.78;5020666;28;20160;-76
2023/03/07 01:42:39;;;;;;;37.42;33.75;;;;;;;1.61;77.40;96866.81;5008001;28;20491;-76
2023/03/07 01:45:11;;;;;;;39.78;35.83;;;;;;;1.66;77.78;96866.13;5021386;28;20033;-75
2023/03/07 01:47:42;;;;;;;36.70;32.95;;;;;;;1.58;77.03;96861.16;5015306;28;20033;-76
2023/03/07 01:50:13;;;;;;;39.08;35.10;;;;;;;1.59;77.67;96868.09;5031006;28;20060;-76
2023/03/07 01:52:41;;;;;;;41.03;37.03;;;;;;;1.64;77.25;96860.25;5001367;28;20120;-76
2023/03/07 01:55:15;;;;;;;37.17;33.50;;;;;;;1.56;77.67;96852.59;5002210;28;20397;-76
2023/03/07 01:57:44;;;;;;;40.13;36.13;;;;;;;1.56;77.77;96855.25;5018013;28;20025;-77
2023/03/07 02:00:12;;;;;;;38.10;34.42;;;;;;;1.66;76.30;96863.50;5014010;28;20025;-75
2023/03/07 02:02:42;;;;;;;40.13;36.00;;;;;;;1.58;77.90;96861.16;5002707;28;20033;-75
2023/03/07 02:05:14;;;;;;;39.30;35.58;;;;;;;1.56;77.17;96857.91;5000843;28;20033;-75
2023/03/07 02:07:43;;;;;;;39.83;35.63;;;;;;;1.54;77.47;96844.06;5030593;28;20029;-76
2023/03/07 02:10:12;;;;;;;40.38;36.17;;;;;;;1.55;77.15;96851.78;5014351;28;20032;-76
2023/03/07 02:12:38;;;;;;;39.47;35.45;;;;;;;1.53;76.93;96847.72;5031144;28;20507;-77
2023/03/07 02:15:04;;;;;;;39.50;35.53;;;;;;;1.62;77.14;96849.06;5000585;28;20635;-76
2023/03/07 02:17:30;;;;;;;40.30;36.28;;;;;;;1.57;77.48;96841.75;5020716;28;20041;-77
2023/03/07 02:20:28;;;;;;;39.88;35.97;;;;;;;1.61;77.79;96844.78;5007381;28;20769;-76
2023/03/07 02:22:54;;;;;;;41.80;37.50;;;;;;;1.53;77.26;96832.63;5024932;28;20072;-76
2023/03/07 02:25:31;;;;;;;43.00;38.72;;;;;;;1.55;77.85;96835.06;5001603;28;20378;-76
2023/03/07 02:27:58;;;;;;;42.83;38.42;;;;;;;1.50;77.03;96832.25;5000395;28;20030;-76
2023/03/07 02:30:24;;;;;;;41.83;37.72;;;;;;;1.52;77.26;96851.44;5013848;28;20481;-76
2023/03/07 02:32:51;;;;;;;43.42;38.97;;;;;;;1.55;77.45;96835.06;5000643;28;20034;-76
2023/03/07 02:35:20;;;;;;;43.58;39.28;;;;;;;1.40;77.88;96820.31;5004925;28;20041;-76
2023/03/07 02:37:52;;;;;;;48.20;43.53;;;;;;;1.49;79.03;96842.06;5010182;28;20125;-76
2023/03/07 02:40:19;;;;;;;48.58;43.83;;;;;;;1.35;79.23;96836.06;5013690;28;20030;-75
2023/03/07 02:42:46;;;;;;;52.30;47.38;;;;;;;1.32;79.49;96839.19;5009750;28;20032;-76
2023/03/07 02:45:15;;;;;;;54.83;49.75;;;;;;;1.34;80.45;96845.06;5021123;28;20120;-77
2023/03/07 02:47:44;;;;;;;53.60;48.83;;;;;;;1.25;80.06;96834.97;5017167;28;20067;-76
2023/03/07 02:50:14;;;;;;;56.03;51.03;;;;;;;1.30;80.75;96833.28;5030343;28;20500;-76
2023/03/07 02:52:42;;;;;;;55.20;50.05;;;;;;;1.27;80.78;96831.06;5027039;28;20033;-74
2023/03/07 02:55:08;;;;;;;63.40;57.75;;;;;;;1.21;82.57;96836.44;5013497;28;20033;-74
2023/03/07 02:57:37;;;;;;;63.72;57.97;;;;;;;1.17;82.81;96833.41;5000761;28;20037;-74
2023/03/07 03:00:08;;;;;;;64.97;59.33;;;;;;;1.12;82.60;96830.59;5013645;28;20056;-74
2023/03/07 03:02:34;;;;;;;68.45;62.22;;;;;;;1.11;83.21;96823.69;5033338;28;20096;-76
2023/03/07 03:04:59;;;;;;;69.40;63.45;;;;;;;1.14;83.56;96833.84;5013574;28;20021;-76
2023/03/07 03:07:25;;;;;;;70.68;64.40;;;;;;;1.12;83.92;96817.34;5000512;28;20492;-76
2023/03/07 03:09:50;;;;;;;71.35;65.20;;;;;;;1.27;83.69;96811.69;5000610;28;20037;-76
2023/03/07 03:12:16;;;;;;;73.65;67.25;;;;;;;1.06;84.60;96804.97;5023523;28;20112;-75
2023/03/07 03:14:42;;;;;;;73.20;66.68;;;;;;;1.15;84.81;96803.66;5006791;28;20048;-75
2023/03/07 03:17:07;;;;;;;74.38;68.18;;;;;;;1.15;84.40;96803.66;5000202;28;20488;-75
2023/03/07 03:19:33;;;;;;;72.10;65.70;;;;;;;1.01;84.95;96796.84;5000790;28;20029;-76
2023/03/07 03:21:58;;;;;;;74.05;67.50;;;;;;;1.17;85.45;96801.59;5013045;28;20095;-75
2023/03/07 03:24:26;;;;;;;73.25;66.57;;;;;;;1.11;85.32;96806.97;5017125;28;20079;-77
2023/03/07 03:26:55;;;;;;;77.85;70.85;;;;;;;1.00;85.63;96800.56;5023094;28;20568;-76
2023/03/07 03:29:20;;;;;;;73.95;67.40;;;;;;;0.99;85.70;96800.75;5006374;28;20546;-76
2023/03/07 03:31:46;;;;;;;75.75;68.90;;;;;;;1.02;85.70;96802.97;4999967;28;20049;-77
2023/03/07 03:34:11;;;;;;;76.93;70.10;;;;;;;0.96;86.00;96804.66;5012946;28;20106;-76
2023/03/07 03:36:37;;;;;;;73.93;67.38;;;;;;;0.87;86.15;96790.06;5046077;28;20045;-76
2023/03/07 03:39:09;;;;;;;76.43;69.15;;;;;;;0.98;86.61;96789.34;5016915;28;20025;-75
2023/03/07 03:41:36;;;;;;;78.30;71.03;;;;;;;0.82;87.48;96781.16;5020107;28;20033;-76
2023/03/07 03:44:02;;;;;;;78.05;70.72;;;;;;;0.78;86.40;96780.75;5003858;28;20018;-75
2023/03/07 03:46:29;;;;;;;76.90;69.90;;;;;;;0.98;86.99;96778.72;5009675;28;20033;-75
2023/03/07 03:48:55;;;;;;;76.60;69.28;;;;;;;0.80;86.51;96778.72;5011353;28;20079;-76
2023/03/07 03:51:23;;;;;;;75.32;68.18;;;;;;;0.87;86.91;96784.75;5009377;28;20636;-75
2023/03/07 03:53:51;;;;;;;74.43;67.38;;;;;;;0.85;87.07;96775.41;5010099;28;20033;-73
2023/03/07 03:56:19;;;;;;;76.90;69.63;;;;;;;0.93;86.92;96788.38;5005139;28;20036;-76
2023/03/07 03:58:50;;;;;;;75.25;68.25;;;;;;;0.94;87.19;96772.25;5003288;28;20253;-76
2023/03/07 04:01:16;;;;;;;75.65;68.28;;;;;;;0.85;86.56;96776.22;5013093;28;20053;-76
2023/03/07 04:03:44;;;;;;;74.07;66.93;;;;;;;0.86;87.25;96767.25;5011759;28;20061;-75
2023/03/07 04:06:12;;;;;;;74.55;67.45;;;;;;;1.00;87.58;96773.22;5000062;28;20053;-75
2023/03/07 04:08:38;;;;;;;74.40;67.32;;;;;;;0.94;86.33;96774.91;4999828;28;20017;-76
2023/03/07 04:11:03;;;;;;;74.63;67.63;;;;;;;0.92;87.73;96766.38;5016274;28;20091;-75
2023/03/07 04:13:29;;;;;;;77.22;69.63;;;;;;;0.90;87.74;96768.44;5012592;28;20049;-76
2023/03/07 04:15:55;;;;;;;76.57;69.07;;;;;;;0.83;87.67;96765.03;5012899;28;20048;-75
2023/03/07 04:18:22;;;;;;;77.10;68.97;;;;;;;0.88;88.42;96773.16;5009831;28;20405;-75
2023/03/07 04:20:49;;;;;;;76.35;68.63;;;;;;;0.76;88.15;96766.94;5022937;28;20068;-75
2023/03/07 04:23:15;;;;;;;74.40;66.70;;;;;;;0.85;87.67;96765.63;5002728;28;20450;-75
2023/03/07 04:25:48;;;;;;;78.30;70.10;;;;;;;0.90;88.33;96767.63;5005574;28;20045;-75
2023/03/07 04:28:18;;;;;;;75.75;68.05;;;;;;;0.97;88.11;96768.38;5009573;28;20041;-76
2023/03/07 04:30:44;;;;;;;73.97;66.47;;;;;;;0.99;87.68;96756.50;5008383;28;20022;-76
2023/03/07 04:33:11;;;;;;;72.68;65.00;;;;;;;0.78;87.97;96754.28;5002591;28;20060;-76
2023/03/07 04:35:37;;;;;;;76.22;68.13;;;;;;;0.88;88.05;96753.78;5016294;28;20055;-75
2023/03/07 04:38:02;;;;;;;78.35;70.63;;;;;;;0.98;87.14;96760.19;4999745;28;20040;-75
2023/03/07 04:40:28;;;;;;;72.47;64.93;;;;;;;0.98;87.71;96757.53;5020326;28;20030;-76
2023/03/07 04:42:54;;;;;;;75.25;67.80;;;;;;;0.99;87.11;96761.00;5025572;28;20088;-74
2023/03/07 04:45:20;;;;;;;73.25;65.78;;;;;;;1.02;87.09;96756.09;5024371;28;20021;-76
2023/03/07 04:47:45;;;;;;;73.28;65.97;;;;;;;1.02;86.65;96749.97;5032275;28;20060;-75
2023/03/07 04:50:11;;;;;;;73.97;66.43;;;;;;;1.05;86.94;96760.13;5015566;28;20025;-75
2023/03/07 04:52:38;;;;;;;74.10;66.55;;;;;;;0.99;86.76;96753.88;5001691;28;20124;-75
2023/03/07 04:55:03;;;;;;;69.65;62.65;;;;;;;0.91;87.21;96753.34;5020177;28;20108;-75
2023/03/07 04:57:29;;;;;;;70.55;63.88;;;;;;;1.00;86.90;96752.03;5008965;28;20038;-75
2023/03/07 04:59:55;;;;;;;72.80;65.50;;;;;;;1.01;86.95;96751.81;5023537;28;20028;-75
2023/03/07 05:02:21;;;;;;;72.07;64.95;;;;;;;1.02;87.43;96740.19;5000163;28;20491;-75
2023/03/07 05:04:47;;;;;;;71.03;64.10;;;;;;;0.92;86.92;96739.88;5016620;28;20049;-75
2023/03/07 05:07:13;;;;;;;71.75;64.90;;;;;;;1.01;86.97;96740.38;5002808;28;20029;-76
2023/03/07 05:09:39;;;;;;;72.60;65.38;;;;;;;1.03;87.31;96741.78;5020700;28;20049;-76
2023/03/07 05:12:04;;;;;;;75.45;68.05;;;;;;;1.02;87.52;96740.19;5008571;28;20038;-76
2023/03/07 05:14:30;;;;;;;72.75;65.72;;;;;;;1.00;86.90;96726.34;5018764;28;20052;-76
2023/03/07 05:16:55;;;;;;;75.57;67.85;;;;;;;0.85;87.78;96731.19;4994677;28;20045;-76
2023/03/07 05:19:21;;;;;;;72.57;65.30;;;;;;;1.02;88.24;96731.41;5007878;28;20030;-77
2023/03/07 05:21:48;;;;;;;70.05;63.30;;;;;;;1.04;87.64;96726.69;5003852;28;20477;-77
2023/03/07 05:24:14;;;;;;;74.38;66.75;;;;;;;0.91;88.25;96738.25;5005373;28;20508;-76
2023/03/07 05:26:40;;;;;;;75.50;68.07;;;;;;;0.99;88.53;96730.00;5033193;28;20068;-77
2023/03/07 05:29:07;;;;;;;74.57;67.32;;;;;;;1.02;87.33;96729.59;5018749;28;20056;-77
2023/03/07 05:31:32;;;;;;;73.32;65.93;;;;;;;1.03;87.37;96730.38;4999990;28;20120;-77
2023/03/07 05:33:58;;;;;;;72.65;65.30;;;;;;;1.03;87.72;96725.88;4998463;28;20492;-76
2023/03/07 05:36:24;;;;;;;72.00;64.85;;;;;;;0.93;88.57;96728.25;5018893;28;20071;-78
2023/03/07 05:38:52;;;;;;;72.43;65.25;;;;;;;1.03;88.05;96720.59;5006497;28;20716;-77
2023/03/07 05:41:18;;;;;;;71.28;64.47;;;;;;;1.07;87.34;96723.63;5015769;28;20116;-77
2023/03/07 05:43:43;;;;;;;73.60;66.03;;;;;;;0.99;87.81;96729.19;5017953;28;20041;-78
2023/03/07 05:46:09;;;;;;;74.15;66.68;;;;;;;0.96;88.36;96724.31;5035340;28;20033;-76
2023/03/07 05:48:34;;;;;;;71.22;63.95;;;;;;;1.11;87.33;96728.25;5014665;28;20017;-75
2023/03/07 05:51:00;;;;;;;72.15;64.80;;;;;;;1.04;87.86;96727.50;4998429;28;20037;-74
2023/03/07 05:53:26;;;;;;;71.32;64.18;;;;;;;1.03;88.57;96725.88;5019640;28;20112;-73
2023/03/07 05:55:51;;;;;;;71.03;64.10;;;;;;;1.00;88.34;96718.41;5008063;28;20026;-75
2023/03/07 05:58:17;;;;;;;72.88;65.45;;;;;;;0.96;88.57;96722.50;5022294;28;20099;-76
2023/03/07 06:00:44;;;;;;;70.65;63.33;;;;;;;1.05;88.94;96713.22;5001652;28;20025;-76
2023/03/07 06:03:10;;;;;;;70.13;63.30;;;;;;;1.02;88.10;96718.16;5002134;28;20034;-75
2023/03/07 06:05:35;;;;;;;72.50;65.75;;;;;;;1.08;87.83;96718.09;5007578;28;20495;-75
2023/03/07 06:08:03;;;;;;;67.88;61.22;;;;;;;1.02;88.65;96713.69;5006055;28;20021;-76
2023/03/07 06:10:29;;;;;;;68.88;62.17;;;;;;;1.08;88.48;96711.97;5017406;28;20040;-76
2023/03/07 06:12:55;;;;;;;66.47;60.00;;;;;;;1.13;87.54;96715.59;5018831;28;20108;-76
2023/03/07 06:15:21;;;;;;;69.55;63.03;;;;;;;1.19;88.15;96720.00;5028685;28;20116;-76
2023/03/07 06:17:51;;;;;;;70.25;63.65;;;;;;;1.15;88.74;96718.81;5023270;28;20032;-76
2023/03/07 06:20:19;;;;;;;67.57;61.35;;;;;;;1.10;87.92;96721.31;5030262;28;20037;-76
2023/03/07 06:22:45;;;;;;;66.85;60.65;;;;;;;1.17;87.81;96710.63;4997702;28;20083;-76
2023/03/07 06:25:11;;;;;;;64.22;58.15;;;;;;;1.25;87.65;96719.13;5000538;28;20065;-76
2023/03/07 06:27:37;;;;;;;66.82;60.65;;;;;;;1.16;88.21;96715.16;5018219;28;20032;-76
2023/03/07 06:30:05;;;;;;;77.07;69.70;;;;;;;1.15;88.30;96718.00;5007413;28;20034;-76
2023/03/07 06:32:32;;;;;;;68.97;62.30;;;;;;;1.23;87.64;96721.19;5006328;28;20040;-76
2023/03/07 06:34:57;;;;;;;64.13;57.95;;;;;;;1.27;87.31;96719.69;5016579;28;20033;-76
2023/03/07 06:37:24;;;;;;;68.10;61.65;;;;;;;1.22;87.23;96719.56;5001239;28;20068;-76
2023/03/07 06:39:49;;;;;;;75.00;67.55;;;;;;;1.27;87.35;96722.34;5023599;28;20702;-76
2023/03/07 06:42:15;;;;;;;80.75;72.50;;;;;;;1.20;87.50;96710.19;5022934;28;20502;-76
2023/03/07 06:44:40;;;;;;;66.50;60.42;;;;;;;1.34;86.55;96720.44;5000374;28;20040;-77
2023/03/07 06:47:06;;;;;;;65.15;59.33;;;;;;;1.33;87.16;96715.38;5017525;28;20033;-77
2023/03/07 06:49:31;;;;;;;63.63;58.25;;;;;;;1.42;87.30;96718.50;5031214;28;20033;-78
2023/03/07 06:51:57;;;;;;;63.42;57.97;;;;;;;1.25;87.80;96708.50;5001149;28;20116;-77
2023/03/07 06:54:22;;;;;;;61.15;55.50;;;;;;;1.37;86.66;96722.66;5023598;28;20077;-77
2023/03/07 06:56:48;;;;;;;59.97;54.67;;;;;;;1.40;87.22;96722.19;5006658;28;20080;-78
2023/03/07 06:59:18;;;;;;;61.05;55.70;;;;;;;1.34;86.95;96720.44;5014418;28;20069;-77
2023/03/07 07:01:44;;;;;;;61.45;55.88;;;;;;;1.37;87.39;96712.03;5000900;28;20410;-77
2023/03/07 07:04:10;;;;;;;59.10;53.97;;;;;;;1.42;86.93;96708.72;5006882;28;20025;-77
2023/03/07 07:06:36;;;;;;;61.38;55.97;;;;;;;1.50;87.35;96716.34;5006501;28;20041;-77
2023/03/07 07:09:03;;;;;;;60.85;55.55;;;;;;;1.48;87.55;96712.31;5000331;28;20044;-77
2023/03/07 07:11:32;;;;;;;62.30;56.80;;;;;;;1.45;87.25;96716.22;5018228;28;20430;-75
2023/03/07 07:13:58;;;;;;;61.25;55.90;;;;;;;1.60;86.69;96710.53;5046792;28;20036;-78
2023/03/07 07:16:24;;;;;;;58.83;53.85;;;;;;;1.57;86.36;96713.59;5016577;28;20029;-77
2023/03/07 07:18:53;;;;;;;59.25;53.95;;;;;;;1.53;87.80;96715.09;5005650;28;20072;-77
2023/03/07 07:21:19;;;;;;;62.35;56.83;;;;;;;1.55;86.70;96718.34;5005089;28;20034;-78
2023/03/07 07:23:45;;;;;;;57.95;52.85;;;;;;;1.66;85.47;96709.59;5009988;28;20060;-78
2023/03/07 07:26:11;;;;;;;62.17;56.67;;;;;;;1.75;85.55;96717.03;5011531;28;20033;-77
2023/03/07 07:28:36;;;;;;;75.32;68.20;;;;;;;1.64;86.55;96722.28;5005973;28;20025;-78
2023/03/07 07:31:04;;;;;;;92.32;83.32;;;;;;;1.60;86.49;96710.53;5020961;28;20759;-77
2023/03/07 07:33:30;;;;;;;75.03;68.03;;;;;;;1.72;87.01;96722.00;5017274;28;20164;-78
2023/03/07 07:35:56;;;;;;;65.22;59.03;;;;;;;1.73;86.83;96719.09;5021441;28;20497;-78
2023/03/07 07:38:21;;;;;;;64.15;58.60;;;;;;;1.78;86.52;96715.78;5013794;28;20029;-76
2023/03/07 07:40:46;;;;;;;64.57;58.90;;;;;;;1.75;86.43;96716.25;5012499;28;20038;-78
2023/03/07 07:43:14;;;;;;;65.75;59.80;;;;;;;1.70;86.64;96713.44;5005856;28;20029;-78
2023/03/07 07:45:45;;;;;;;68.85;62.72;;;;;;;1.84;86.69;96712.25;5005573;28;20041;-78
2023/03/07 07:48:14;;;;;;;64.80;59.13;;;;;;;1.89;86.13;96721.13;5010935;28;20084;-78
2023/03/07 07:50:40;;;;;;;63.38;58.15;;;;;;;1.87;86.50;96717.06;5028908;28;20457;-78
2023/03/07 07:53:06;;;;;;;62.78;57.42;;;;;;;1.92;86.21;96709.25;5024314;28;20102;-78
2023/03/07 07:55:31;;;;;;;59.03;53.97;;;;;;;1.94;85.60;96715.13;5021566;28;20028;-78
2023/03/07 07:57:57;;;;;;;60.47;55.05;;;;;;;2.01;85.49;96713.19;5014535;28;20048;-78
2023/03/07 08:00:22;;;;;;;63.15;57.75;;;;;;;1.90;86.19;96716.63;5016997;28;20036;-77
2023/03/07 08:02:49;;;;;;;62.08;56.67;;;;;;;2.07;85.28;96718.44;5007798;28;20034;-78
2023/03/07 08:05:15;;;;;;;59.65;54.40;;;;;;;2.06;85.42;96710.66;5026388;28;20044;-77
2023/03/07 08:07:40;;;;;;;62.30;56.95;;;;;;;2.25;84.88;96720.19;5021792;28;20665;-78
2023/03/07 08:10:07;;;;;;;59.85;54.60;;;;;;;2.35;84.00;96704.50;5016400;28;20068;-77
2023/03/07 08:12:32;;;;;;;56.00;51.22;;;;;;;2.32;84.32;96710.28;5007764;28;20038;-78
2023/03/07 08:14:57;;;;;;;61.22;55.67;;;;;;;2.28;84.08;96714.44;5009551;28;20029;-77
2023/03/07 08:17:23;;;;;;;56.40;51.53;;;;;;;2.34;84.05;96708.19;5005134;28;20037;-77
2023/03/07 08:19:48;;;;;;;55.47;50.72;;;;;;;2.38;83.92;96704.03;5019579;28;20473;-78
2023/03/07 08:22:15;;;;;;;53.13;48.88;;;;;;;2.48;83.33;96709.59;4999594;28;20467;-78
2023/03/07 08:24:41;;;;;;;51.03;46.70;;;;;;;2.64;83.04;96708.09;5016245;28;20021;-78
2023/03/07 08:27:07;;;;;;;51.58;47.25;;;;;;;2.65;83.39;96704.41;4990886;28;20456;-77
2023/03/07 08:29:34;;;;;;;51.03;46.53;;;;;;;2.62;82.55;96705.66;5009591;28;20025;-77
2023/03/07 08:31:59;;;;;;;51.97;47.53;;;;;;;2.85;82.52;96704.84;5004802;28;20044;-77
2023/03/07 08:34:25;;;;;;;48.15;43.92;;;;;;;2.82;81.28;96701.88;5015552;28;20029;-77
2023/03/07 08:36:51;;;;;;;49.47;45.22;;;;;;;2.88;81.68;96698.25;5015828;28;20040;-77
2023/03/07 08:39:17;;;;;;;47.72;43.53;;;;;;;2.94;81.69;96689.38;5030730;28;20022;-79
2023/03/07 08:41:42;;;;;;;44.60;40.70;;;;;;;2.97;81.28;96696.88;5006020;28;20037;-76
2023/03/07 08:44:08;;;;;;;43.58;39.80;;;;;;;2.85;81.53;96698.75;5019187;28;20033;-78
2023/03/07 08:46:34;;;;;;;44.83;40.83;;;;;;;3.08;81.36;96686.22;5005685;28;20160;-77
2023/03/07 08:48:59;;;;;;;46.30;42.25;;;;;;;3.27;79.97;96686.88;5025697;28;20112;-77
2023/03/07 08:51:25;;;;;;;39.15;35.72;;;;;;;3.17;80.06;96682.16;5006754;28;20033;-78
2023/03/07 08:53:50;;;;;;;39.95;36.55;;;;;;;3.27;80.11;96678.88;5023663;28;20029;-78
2023/03/07 08:56:17;;;;;;;40.50;36.55;;;;;;;3.37;79.31;96677.25;5029305;28;20064;-78
2023/03/07 08:58:43;;;;;;;37.92;34.42;;;;;;;3.43;80.46;96672.84;5015657;28;20025;-79
2023/03/07 09:01:09;;;;;;;42.80;38.53;;;;;;;3.60;78.83;96676.34;5020509;28;20037;-78
2023/03/07 09:03:35;;;;;;;34.55;31.45;;;;;;;3.41;77.99;96672.25;5007126;28;20024;-79
2023/03/07 09:06:01;;;;;;;33.17;29.88;;;;;;;3.66;78.05;96679.94;5011314;28;20038;-79
2023/03/07 09:08:27;;;;;;;35.42;32.20;;;;;;;3.77;77.94;96661.25;5021906;28;20017;-78
2023/03/07 09:10:52;;;;;;;30.60;27.60;;;;;;;3.88;77.06;96668.34;5020064;28;20037;-78
2023/03/07 09:13:18;;;;;;;35.67;32.50;;;;;;;4.05;78.42;96661.19;5037937;28;20029;-78
2023/03/07 09:15:43;;;;;;;31.25;28.33;;;;;;;4.15;77.29;96666.69;5029054;28;20061;-79
2023/03/07 09:18:09;;;;;;;36.03;32.20;;;;;;;4.27;74.83;96649.84;5014306;28;20085;-79
2023/03/07 09:20:36;;;;;;;31.77;28.70;;;;;;;4.26;76.10;96664.19;5009234;28;20038;-79
2023/03/07 09:23:02;;;;;;;29.65;26.65;;;;;;;4.44;75.51;96639.97;5020607;28;20022;-78
2023/03/07 09:25:27;;;;;;;30.67;27.65;;;;;;;4.87;75.28;96650.72;5009927;28;20485;-78
2023/03/07 09:27:53;;;;;;;22.48;20.27;;;;;;;4.74;73.63;96651.06;5010949;28;20455;-78
2023/03/07 09:30:18;;;;;;;25.70;23.10;;;;;;;4.92;74.27;96645.47;5021393;28;20115;-78
2023/03/07 09:32:44;;;;;;;22.73;20.20;;;;;;;5.05;73.33;96641.63;5033649;28;20493;-78
2023/03/07 09:35:09;;;;;;;19.88;17.92;;;;;;;4.58;73.13;96642.06;5032441;28;20041;-78
2023/03/07 09:37:35;;;;;;;21.90;18.48;;;;;;;4.61;71.82;96646.91;5032399;28;20021;-78
2023/03/07 09:40:04;;;;;;;17.35;15.35;;;;;;;4.99;71.22;96623.94;5032057;28;20043;-78
2023/03/07 09:42:48;;;;;;;18.73;15.02;;;;;;;4.59;71.41;96632.19;5003003;28;20030;-78
2023/03/07 09:45:23;;;;;;;18.83;16.38;;;;;;;4.64;71.54;96621.63;5021385;28;20678;-78
2023/03/07 09:48:15;;;;;;;18.17;15.02;;;;;;;4.85;71.03;96618.16;5011115;28;20036;-78
2023/03/07 09:51:22;;;;;;;19.20;15.52;;;;;;;5.15;71.16;96609.75;5011579;28;20033;-78
2023/03/07 09:53:54;;;;;;;19.23;15.45;;;;;;;5.49;70.71;96622.69;5030989;28;20504;-77
2023/03/07 09:56:32;;;;;;;16.42;13.85;;;;;;;4.95;70.33;96615.63;5016455;28;20098;-78
2023/03/07 09:59:07;;;;;;;19.23;15.82;;;;;;;5.18;70.79;96614.59;5002558;28;20128;-78
2023/03/07 10:01:34;;;;;;;16.73;14.93;;;;;;;4.89;68.39;96632.63;5020206;28;20034;-78
2023/03/07 10:04:05;;;;;;;18.50;15.18;;;;;;;4.94;70.83;96623.88;5013542;28;20057;-78
2023/03/07 10:06:41;;;;;;;16.38;14.68;;;;;;;5.15;69.20;96613.22;5032781;28;20037;-79
2023/03/07 10:09:13;;;;;;;18.00;14.73;;;;;;;4.92;69.80;96610.78;5003183;28;20044;-79
2023/03/07 10:12:06;;;;;;;18.17;13.95;;;;;;;4.94;69.08;96623.88;5025329;28;20037;-77
2023/03/07 10:14:41;;;;;;;14.27;12.27;;;;;;;5.21;69.10;96624.75;5002415;28;20128;-78
2023/03/07 10:17:37;;;;;;;17.30;13.43;;;;;;;5.46;68.24;96612.50;5025743;28;20038;-78
2023/03/07 10:20:16;;;;;;;15.85;13.15;;;;;;;5.20;67.05;96607.13;5030153;28;20045;-78
2023/03/07 10:22:56;;;;;;;17.50;13.65;;;;;;;5.50;66.91;96600.28;5033143;28;20038;-78
2023/03/07 10:25:28;;;;;;;16.00;12.52;;;;;;;5.17;66.38;96603.09;5005461;28;20044;-78
2023/03/07 10:27:59;;;;;;;16.15;12.65;;;;;;;5.31;67.57;96590.97;5015853;28;20400;-78
2023/03/07 10:30:25;;;;;;;13.73;11.63;;;;;;;5.11;65.44;96598.75;5007332;28;20443;-78
2023/03/07 10:32:54;;;;;;;17.13;12.38;;;;;;;5.40;67.70;96600.16;5033190;28;20112;-78
2023/03/07 10:35:23;;;;;;;12.75;11.38;;;;;;;5.41;67.99;96591.06;5024577;28;20038;-78
2023/03/07 10:38:03;;;;;;;14.10;12.02;;;;;;;5.30;65.43;96592.03;5045851;28;20021;-78
2023/03/07 10:40:47;;;;;;;13.32;10.68;;;;;;;5.16;65.03;96590.81;5033931;28;20033;-78
2023/03/07 10:43:23;;;;;;;12.30;10.95;;;;;;;5.38;65.08;96591.59;5037544;28;20041;-78
2023/03/07 10:45:57;;;;;;;13.90;11.00;;;;;;;5.34;63.96;96577.16;5031865;28;20037;-78
2023/03/07 10:48:24;;;;;;;16.52;11.77;;;;;;;5.25;63.82;96581.28;5024275;28;20037;-78
2023/03/07 10:51:19;;;;;;;13.20;11.32;;;;;;;4.97;63.60;96597.50;5017535;28;20034;-78
2023/03/07 10:53:45;;;;;;;12.68;10.93;;;;;;;5.56;64.46;96569.88;5020879;28;20042;-78
2023/03/07 10:56:15;;;;;;;12.43;10.10;;;;;;;5.56;62.71;96579.75;5016854;28;20032;-78
2023/03/07 10:59:04;;;;;;;12.00;10.52;;;;;;;5.75;62.30;96578.34;5033415;28;20045;-78
2023/03/07 11:01:31;;;;;;;13.55;10.23;;;;;;;5.59;61.21;96566.72;5022382;28;20057;-77
2023/03/07 11:04:00;;;;;;;12.68;9.93;;;;;;;5.64;61.36;96570.50;5024714;28;20022;-76
2023/03/07 11:06:39;;;;;;;11.88;10.10;;;;;;;5.94;63.41;96555.56;5005714;28;20034;-76
2023/03/07 11:09:18;;;;;;;12.18;10.50;;;;;;;5.99;62.00;96557.47;5000845;28;20025;-76
2023/03/07 11:11:49;;;;;;;11.80;10.13;;;;;;;6.17;62.28;96555.22;5027979;28;20081;-76
2023/03/07 11:14:15;;;;;;;12.32;10.07;;;;;;;6.00;61.88;96559.88;5019611;28;20441;-76
2023/03/07 11:16:41;;;;;;;11.73;9.25;;;;;;;6.00;61.44;96564.41;5013471;28;20111;-76
2023/03/07 11:19:30;;;;;;;10.98;9.35;;;;;;;5.94;60.81;96555.56;5030960;28;20034;-76
2023/03/07 11:21:56;;;;;;;13.02;8.95;;;;;;;5.64;58.97;96554.47;5016369;28;20045;-76
2023/03/07 11:24:27;;;;;;;9.13;8.23;;;;;;;5.57;58.87;96563.50;5016819;28;20025;-76
2023/03/07 11:26:58;;;;;;;10.88;8.65;;;;;;;5.46;58.20;96540.41;5016799;28;20045;-76
2023/03/07 11:29:27;;;;;;;10.35;8.57;;;;;;;5.79;58.29;96557.28;5028861;28;20044;-76